sensor_id;sensor_type;location;lat;lon;timestamp;pressure;altitude;pressure_sealevel;temperature;humidity
65897;BME280;52677;50.898;10.854;2022-07-29T00:00:57;98736.94;;;15.29;55.54
65897;BME280;52677;50.898;10.854;2022-07-29T00:02:57;98744.50;;;15.36;55.53
65897;BME280;52677;50.898;10.854;2022-07-29T00:04:58;98732.94;;;15.37;55.24
65897;BME280;52677;50.898;10.854;2022-07-29T00:06:58;98731.38;;;15.40;55.50
65897;BME280;52677;50.898;10.854;2022-07-29T00:08:59;98729.38;;;15.40;55.79
65897;BME280;52677;50.898;10.854;2022-07-29T00:10:59;98729.75;;;15.39;55.35
65897;BME280;52677;50.898;10.854;2022-07-29T00:12:59;98727.38;;;15.37;55.66
65897;BME280;52677;50.898;10.854;2022-07-29T00:15:00;98729.75;;;15.39;55.91
65897;BME280;52677;50.898;10.854;2022-07-29T00:17:00;98724.19;;;15.35;55.86
65897;BME280;52677;50.898;10.854;2022-07-29T00:19:01;98725.44;;;15.31;56.22
65897;BME280;52677;50.898;10.854;2022-07-29T00:21:01;98733.81;;;15.24;56.57
65897;BME280;52677;50.898;10.854;2022-07-29T00:23:01;98731.00;;;15.20;56.72
65897;BME280;52677;50.898;10.854;2022-07-29T00:25:02;98725.84;;;15.18;56.20
65897;BME280;52677;50.898;10.854;2022-07-29T00:27:02;98723.88;;;15.15;56.59
65897;BME280;52677;50.898;10.854;2022-07-29T00:29:03;98721.09;;;15.08;57.20
65897;BME280;52677;50.898;10.854;2022-07-29T00:31:04;98717.94;;;15.03;57.12
65897;BME280;52677;50.898;10.854;2022-07-29T00:33:04;98712.78;;;14.98;57.38
65897;BME280;52677;50.898;10.854;2022-07-29T00:35:05;98710.81;;;14.91;57.22
65897;BME280;52677;50.898;10.854;2022-07-29T00:37:25;98718.34;;;14.87;57.47
65897;BME280;52677;50.898;10.854;2022-07-29T00:39:25;98708.81;;;14.81;57.79
65897;BME280;52677;50.898;10.854;2022-07-29T00:41:25;98712.81;;;14.76;58.21
65897;BME280;52677;50.898;10.854;2022-07-29T00:43:26;98715.22;;;14.74;58.47
65897;BME280;52677;50.898;10.854;2022-07-29T00:45:27;98719.19;;;14.77;58.09
65897;BME280;52677;50.898;10.854;2022-07-29T00:47:27;98715.97;;;14.78;58.47
65897;BME280;52677;50.898;10.854;2022-07-29T00:49:28;98715.19;;;14.78;58.43
65897;BME280;52677;50.898;10.854;2022-07-29T00:51:28;98710.00;;;14.73;58.50
65897;BME280;52677;50.898;10.854;2022-07-29T00:53:30;98709.22;;;14.72;58.25
65897;BME280;52677;50.898;10.854;2022-07-29T00:55:31;98706.06;;;14.70;58.09
65897;BME280;52677;50.898;10.854;2022-07-29T00:57:31;98706.84;;;14.74;58.24
65897;BME280;52677;50.898;10.854;2022-07-29T00:59:32;98701.66;;;14.73;58.66
65897;BME280;52677;50.898;10.854;2022-07-29T01:01:32;98702.06;;;14.75;58.11
65897;BME280;52677;50.898;10.854;2022-07-29T01:03:33;98699.69;;;14.77;58.31
65897;BME280;52677;50.898;10.854;2022-07-29T01:05:34;98703.66;;;14.72;58.58
65897;BME280;52677;50.898;10.854;2022-07-29T01:07:35;98703.25;;;14.70;58.85
65897;BME280;52677;50.898;10.854;2022-07-29T01:09:37;98702.91;;;14.65;58.60
65897;BME280;52677;50.898;10.854;2022-07-29T01:11:38;98694.91;;;14.63;59.11
65897;BME280;52677;50.898;10.854;2022-07-29T01:13:39;98682.19;;;14.55;59.04
65897;BME280;52677;50.898;10.854;2022-07-29T01:15:44;98676.25;;;14.53;58.79
65897;BME280;52677;50.898;10.854;2022-07-29T01:26:52;98671.47;;;14.25;60.52
65897;BME280;52677;50.898;10.854;2022-07-29T01:29:17;98656.75;;;14.21;61.27
65897;BME280;52677;50.898;10.854;2022-07-29T01:31:22;98657.94;;;14.20;61.40
65897;BME280;52677;50.898;10.854;2022-07-29T01:33:26;98654.38;;;14.19;61.08
65897;BME280;52677;50.898;10.854;2022-07-29T01:35:46;98659.91;;;14.23;60.64
65897;BME280;52677;50.898;10.854;2022-07-29T01:37:52;98657.53;;;14.21;61.44
65897;BME280;52677;50.898;10.854;2022-07-29T01:39:57;98662.31;;;14.21;61.28
65897;BME280;52677;50.898;10.854;2022-07-29T01:42:09;98652.75;;;14.15;62.22
65897;BME280;52677;50.898;10.854;2022-07-29T01:44:14;98651.97;;;14.11;61.98
65897;BME280;52677;50.898;10.854;2022-07-29T01:46:35;98658.34;;;14.08;62.00
65897;BME280;52677;50.898;10.854;2022-07-29T01:48:47;98654.78;;;14.07;61.72
65897;BME280;52677;50.898;10.854;2022-07-29T01:50:53;98661.91;;;14.04;62.27
65897;BME280;52677;50.898;10.854;2022-07-29T01:52:59;98668.66;;;14.03;62.54
65897;BME280;52677;50.898;10.854;2022-07-29T01:55:06;98668.66;;;14.03;62.75
65897;BME280;52677;50.898;10.854;2022-07-29T01:57:09;98661.50;;;14.02;62.73
65897;BME280;52677;50.898;10.854;2022-07-29T01:59:11;98660.72;;;14.02;62.85
65897;BME280;52677;50.898;10.854;2022-07-29T02:01:12;98660.72;;;14.05;62.42
65897;BME280;52677;50.898;10.854;2022-07-29T02:03:15;98657.16;;;14.09;61.44
65897;BME280;52677;50.898;10.854;2022-07-29T02:05:18;98653.19;;;14.10;61.62
65897;BME280;52677;50.898;10.854;2022-07-29T02:07:22;98658.75;;;14.10;62.60
65897;BME280;52677;50.898;10.854;2022-07-29T02:09:23;98657.13;;;14.05;63.11
65897;BME280;52677;50.898;10.854;2022-07-29T02:11:25;98656.75;;;13.96;64.11
65897;BME280;52677;50.898;10.854;2022-07-29T02:13:26;98638.84;;;13.90;64.77
65897;BME280;52677;50.898;10.854;2022-07-29T02:15:30;98642.84;;;13.85;64.26
65897;BME280;52677;50.898;10.854;2022-07-29T02:17:41;98647.59;;;13.85;64.67
65897;BME280;52677;50.898;10.854;2022-07-29T02:19:42;98645.22;;;13.83;64.98
65897;BME280;52677;50.898;10.854;2022-07-29T02:21:44;98640.03;;;13.82;64.96
65897;BME280;52677;50.898;10.854;2022-07-29T02:23:46;98637.25;;;13.78;65.48
65897;BME280;52677;50.898;10.854;2022-07-29T02:25:49;98648.00;;;13.76;65.39
65897;BME280;52677;50.898;10.854;2022-07-29T02:27:52;98645.59;;;13.74;65.21
65897;BME280;52677;50.898;10.854;2022-07-29T02:29:53;98647.19;;;13.75;64.42
65897;BME280;52677;50.898;10.854;2022-07-29T02:31:55;98645.59;;;13.78;64.68
65897;BME280;52677;50.898;10.854;2022-07-29T02:33:57;98647.59;;;13.74;64.76
65897;BME280;52677;50.898;10.854;2022-07-29T02:35:59;98640.41;;;13.73;64.41
65897;BME280;52677;50.898;10.854;2022-07-29T02:37:59;98641.63;;;13.72;64.47
65897;BME280;52677;50.898;10.854;2022-07-29T02:40:18;98640.81;;;13.71;64.88
65897;BME280;52677;50.898;10.854;2022-07-29T02:42:21;98634.06;;;13.69;64.79
65897;BME280;52677;50.898;10.854;2022-07-29T02:44:24;98632.09;;;13.69;64.69
65897;BME280;52677;50.898;10.854;2022-07-29T02:46:33;98630.91;;;13.74;64.42
65897;BME280;52677;50.898;10.854;2022-07-29T02:48:37;98627.72;;;13.72;65.29
65897;BME280;52677;50.898;10.854;2022-07-29T02:50:44;98640.41;;;13.69;65.42
65897;BME280;52677;50.898;10.854;2022-07-29T02:53:14;98635.66;;;13.70;64.63
65897;BME280;52677;50.898;10.854;2022-07-29T02:55:22;98628.53;;;13.65;65.49
65897;BME280;52677;50.898;10.854;2022-07-29T02:57:46;98623.34;;;13.60;65.65
65897;BME280;52677;50.898;10.854;2022-07-29T02:59:49;98628.06;;;13.56;65.72
65897;BME280;52677;50.898;10.854;2022-07-29T03:01:52;98626.50;;;13.52;65.94
65897;BME280;52677;50.898;10.854;2022-07-29T03:03:54;98630.84;;;13.45;66.17
65897;BME280;52677;50.898;10.854;2022-07-29T03:05:56;98626.47;;;13.41;65.93
65897;BME280;52677;50.898;10.854;2022-07-29T03:08:01;98624.06;;;13.39;66.94
65897;BME280;52677;50.898;10.854;2022-07-29T03:15:56;98633.22;;;13.33;66.35
65897;BME280;52677;50.898;10.854;2022-07-29T03:17:58;98628.03;;;13.31;66.78
65897;BME280;52677;50.898;10.854;2022-07-29T03:19:59;98638.38;;;13.38;66.40
65897;BME280;52677;50.898;10.854;2022-07-29T03:21:59;98639.16;;;13.38;66.70
65897;BME280;52677;50.898;10.854;2022-07-29T03:24:00;98639.97;;;13.35;67.23
65897;BME280;52677;50.898;10.854;2022-07-29T03:26:00;98638.38;;;13.34;67.51
65897;BME280;52677;50.898;10.854;2022-07-29T03:28:00;98645.91;;;13.34;67.58
65897;BME280;52677;50.898;10.854;2022-07-29T03:30:01;98645.50;;;13.35;67.73
65897;BME280;52677;50.898;10.854;2022-07-29T03:32:03;98643.53;;;13.39;68.10
65897;BME280;52677;50.898;10.854;2022-07-29T03:34:04;98644.31;;;13.36;68.27
65897;BME280;52677;50.898;10.854;2022-07-29T03:36:04;98649.47;;;13.38;68.35
65897;BME280;52677;50.898;10.854;2022-07-29T03:38:05;98640.34;;;13.37;68.49
65897;BME280;52677;50.898;10.854;2022-07-29T03:40:07;98635.19;;;13.36;68.81
65897;BME280;52677;50.898;10.854;2022-07-29T03:42:11;98636.78;;;13.37;68.72
65897;BME280;52677;50.898;10.854;2022-07-29T03:44:15;98640.75;;;13.36;68.91
65897;BME280;52677;50.898;10.854;2022-07-29T03:46:16;98635.59;;;13.34;69.17
65897;BME280;52677;50.898;10.854;2022-07-29T03:48:19;98642.34;;;13.33;69.27
65897;BME280;52677;50.898;10.854;2022-07-29T03:50:21;98633.59;;;13.35;68.78
65897;BME280;52677;50.898;10.854;2022-07-29T03:52:22;98630.44;;;13.33;68.48
65897;BME280;52677;50.898;10.854;2022-07-29T03:54:22;98631.22;;;13.33;67.96
65897;BME280;52677;50.898;10.854;2022-07-29T03:56:23;98632.00;;;13.27;68.70
65897;BME280;52677;50.898;10.854;2022-07-29T03:58:26;98632.38;;;13.25;68.96
65897;BME280;52677;50.898;10.854;2022-07-29T04:00:27;98629.19;;;13.23;68.70
65897;BME280;52677;50.898;10.854;2022-07-29T04:02:28;98614.88;;;13.17;68.67
65897;BME280;52677;50.898;10.854;2022-07-29T04:04:32;98627.53;;;13.15;68.83
65897;BME280;52677;50.898;10.854;2022-07-29T04:06:44;98622.78;;;13.12;69.29
65897;BME280;52677;50.898;10.854;2022-07-29T04:08:44;98611.66;;;13.12;69.28
65897;BME280;52677;50.898;10.854;2022-07-29T04:10:45;98615.22;;;13.12;68.46
65897;BME280;52677;50.898;10.854;2022-07-29T04:12:45;98612.84;;;13.11;68.10
65897;BME280;52677;50.898;10.854;2022-07-29T04:14:46;98607.69;;;13.13;68.05
65897;BME280;52677;50.898;10.854;2022-07-29T04:16:46;98614.03;;;13.13;67.68
65897;BME280;52677;50.898;10.854;2022-07-29T04:18:47;98618.44;;;13.18;67.77
65897;BME280;52677;50.898;10.854;2022-07-29T04:20:47;98619.63;;;13.17;68.04
65897;BME280;52677;50.898;10.854;2022-07-29T04:22:47;98617.63;;;13.14;67.86
65897;BME280;52677;50.898;10.854;2022-07-29T04:24:48;98629.13;;;13.12;67.59
65897;BME280;52677;50.898;10.854;2022-07-29T04:26:48;98618.78;;;13.06;67.68
65897;BME280;52677;50.898;10.854;2022-07-29T04:28:49;98629.09;;;13.05;67.91
65897;BME280;52677;50.898;10.854;2022-07-29T04:30:49;98629.50;;;13.00;68.14
65897;BME280;52677;50.898;10.854;2022-07-29T04:32:50;98634.66;;;13.02;68.32
65897;BME280;52677;50.898;10.854;2022-07-29T04:34:50;98631.84;;;12.98;68.70
65897;BME280;52677;50.898;10.854;2022-07-29T04:36:51;98642.16;;;12.98;69.92
65897;BME280;52677;50.898;10.854;2022-07-29T04:38:51;98648.13;;;13.00;68.90
65897;BME280;52677;50.898;10.854;2022-07-29T04:40:51;98639.78;;;12.96;69.72
65897;BME280;52677;50.898;10.854;2022-07-29T04:42:52;98645.72;;;12.94;70.33
65897;BME280;52677;50.898;10.854;2022-07-29T04:44:52;98645.31;;;12.92;70.61
65897;BME280;52677;50.898;10.854;2022-07-29T04:46:52;98641.75;;;12.92;70.08
65897;BME280;52677;50.898;10.854;2022-07-29T04:48:52;98640.97;;;12.91;70.05
65897;BME280;52677;50.898;10.854;2022-07-29T04:50:53;98645.31;;;12.96;70.31
65897;BME280;52677;50.898;10.854;2022-07-29T04:52:53;98660.41;;;12.95;70.78
65897;BME280;52677;50.898;10.854;2022-07-29T04:54:53;98652.84;;;12.92;71.43
65897;BME280;52677;50.898;10.854;2022-07-29T04:56:54;98652.84;;;12.92;71.77
65897;BME280;52677;50.898;10.854;2022-07-29T04:58:54;98649.28;;;12.95;71.17
65897;BME280;52677;50.898;10.854;2022-07-29T05:00:55;98647.72;;;12.98;71.94
65897;BME280;52677;50.898;10.854;2022-07-29T05:02:55;98649.28;;;12.99;71.77
65897;BME280;52677;50.898;10.854;2022-07-29T05:04:55;98662.03;;;13.00;71.71
65897;BME280;52677;50.898;10.854;2022-07-29T05:06:56;98656.03;;;12.98;72.03
65897;BME280;52677;50.898;10.854;2022-07-29T05:08:56;98650.13;;;12.99;72.04
65897;BME280;52677;50.898;10.854;2022-07-29T05:10:56;98660.44;;;13.06;71.81
65897;BME280;52677;50.898;10.854;2022-07-29T05:12:57;98654.53;;;13.11;71.75
65897;BME280;52677;50.898;10.854;2022-07-29T05:14:57;98660.91;;;13.18;71.35
65897;BME280;52677;50.898;10.854;2022-07-29T05:16:58;98652.19;;;13.20;71.77
65897;BME280;52677;50.898;10.854;2022-07-29T05:18:58;98650.25;;;13.24;71.69
65897;BME280;52677;50.898;10.854;2022-07-29T05:20:58;98651.47;;;13.37;71.19
65897;BME280;52677;50.898;10.854;2022-07-29T05:23:00;98645.94;;;13.52;69.78
65897;BME280;52677;50.898;10.854;2022-07-29T05:25:01;98640.44;;;13.66;68.83
65897;BME280;52677;50.898;10.854;2022-07-29T05:27:02;98645.63;;;13.85;68.23
65897;BME280;52677;50.898;10.854;2022-07-29T05:29:02;98639.28;;;13.99;67.63
65897;BME280;52677;50.898;10.854;2022-07-29T05:31:03;98641.63;;;14.15;67.85
65897;BME280;52677;50.898;10.854;2022-07-29T05:33:03;98646.81;;;14.27;67.23
65897;BME280;52677;50.898;10.854;2022-07-29T05:35:04;98640.44;;;14.41;66.46
65897;BME280;52677;50.898;10.854;2022-07-29T05:37:04;98644.03;;;14.52;65.62
65897;BME280;52677;50.898;10.854;2022-07-29T05:39:05;98644.41;;;14.65;65.29
65897;BME280;52677;50.898;10.854;2022-07-29T05:41:05;98645.19;;;14.76;64.70
65897;BME280;52677;50.898;10.854;2022-07-29T05:43:06;98641.94;;;14.88;64.60
65897;BME280;52677;50.898;10.854;2022-07-29T05:45:07;98638.72;;;15.00;64.77
65897;BME280;52677;50.898;10.854;2022-07-29T05:47:07;98638.31;;;15.09;63.75
65897;BME280;52677;50.898;10.854;2022-07-29T05:49:08;98637.47;;;15.19;62.87
65897;BME280;52677;50.898;10.854;2022-07-29T05:51:08;98643.00;;;15.26;62.75
65897;BME280;52677;50.898;10.854;2022-07-29T05:53:08;98639.03;;;15.24;62.52
65897;BME280;52677;50.898;10.854;2022-07-29T05:55:09;98640.59;;;15.28;62.54
65897;BME280;52677;50.898;10.854;2022-07-29T05:57:19;98631.81;;;15.30;62.27
65897;BME280;52677;50.898;10.854;2022-07-29T05:59:20;98636.22;;;15.31;62.26
65897;BME280;52677;50.898;10.854;2022-07-29T06:01:21;98635.03;;;15.32;62.43
65897;BME280;52677;50.898;10.854;2022-07-29T06:03:21;98631.03;;;15.29;63.01
65897;BME280;52677;50.898;10.854;2022-07-29T06:05:22;98632.66;;;15.27;63.42
65897;BME280;52677;50.898;10.854;2022-07-29T06:07:22;98627.91;;;15.24;63.49
65897;BME280;52677;50.898;10.854;2022-07-29T06:09:23;98626.25;;;15.33;62.81
65897;BME280;52677;50.898;10.854;2022-07-29T06:11:23;98628.19;;;15.43;62.79
65897;BME280;52677;50.898;10.854;2022-07-29T06:13:23;98637.25;;;15.58;62.55
65897;BME280;52677;50.898;10.854;2022-07-29T06:15:24;98633.22;;;15.70;62.02
65897;BME280;52677;50.898;10.854;2022-07-29T06:17:24;98631.97;;;15.82;61.07
65897;BME280;52677;50.898;10.854;2022-07-29T06:19:25;98641.03;;;15.93;60.91
65897;BME280;52677;50.898;10.854;2022-07-29T06:21:25;98649.72;;;16.06;59.96
65897;BME280;52677;50.898;10.854;2022-07-29T06:23:26;98653.22;;;16.17;59.25
65897;BME280;52677;50.898;10.854;2022-07-29T06:25:27;98643.56;;;16.25;58.78
65897;BME280;52677;50.898;10.854;2022-07-29T06:27:30;98649.09;;;16.32;58.26
65897;BME280;52677;50.898;10.854;2022-07-29T06:29:30;98648.25;;;16.39;58.03
65897;BME280;52677;50.898;10.854;2022-07-29T06:31:31;98645.78;;;16.44;58.65
65897;BME280;52677;50.898;10.854;2022-07-29T06:33:31;98646.94;;;16.50;57.66
65897;BME280;52677;50.898;10.854;2022-07-29T06:35:35;98644.88;;;16.58;57.78
65897;BME280;52677;50.898;10.854;2022-07-29T06:37:36;98647.16;;;16.67;57.22
65897;BME280;52677;50.898;10.854;2022-07-29T06:39:36;98651.09;;;16.76;56.63
65897;BME280;52677;50.898;10.854;2022-07-29T06:41:37;98652.19;;;16.86;57.46
65897;BME280;52677;50.898;10.854;2022-07-29T06:43:41;98652.91;;;16.94;56.12
65897;BME280;52677;50.898;10.854;2022-07-29T06:45:41;98650.03;;;17.01;55.78
65897;BME280;52677;50.898;10.854;2022-07-29T06:47:43;98644.34;;;17.08;55.42
65897;BME280;52677;50.898;10.854;2022-07-29T06:49:43;98641.47;;;17.15;54.83
65897;BME280;52677;50.898;10.854;2022-07-29T06:51:43;98640.91;;;17.27;54.87
65897;BME280;52677;50.898;10.854;2022-07-29T06:53:44;98637.66;;;17.32;54.71
65897;BME280;52677;50.898;10.854;2022-07-29T06:55:44;98633.13;;;17.42;54.63
65897;BME280;52677;50.898;10.854;2022-07-29T06:57:45;98634.63;;;17.50;54.38
65897;BME280;52677;50.898;10.854;2022-07-29T06:59:46;98635.56;;;17.67;54.10
65897;BME280;52677;50.898;10.854;2022-07-29T07:01:47;98640.56;;;17.83;52.82
65897;BME280;52677;50.898;10.854;2022-07-29T07:03:47;98633.78;;;18.07;52.82
65897;BME280;52677;50.898;10.854;2022-07-29T07:05:48;98632.78;;;18.21;53.01
65897;BME280;52677;50.898;10.854;2022-07-29T07:07:48;98642.38;;;18.43;52.38
65897;BME280;52677;50.898;10.854;2022-07-29T07:09:49;98635.00;;;18.53;51.59
65897;BME280;52677;50.898;10.854;2022-07-29T07:11:49;98626.81;;;18.66;51.45
65897;BME280;52677;50.898;10.854;2022-07-29T07:13:49;98629.19;;;18.67;50.91
65897;BME280;52677;50.898;10.854;2022-07-29T07:15:50;98634.28;;;18.72;50.46
65897;BME280;52677;50.898;10.854;2022-07-29T07:17:51;98630.41;;;18.66;50.33
65897;BME280;52677;50.898;10.854;2022-07-29T07:19:52;98635.66;;;18.61;50.29
65897;BME280;52677;50.898;10.854;2022-07-29T07:21:53;98636.59;;;18.54;50.91
65897;BME280;52677;50.898;10.854;2022-07-29T07:23:53;98638.38;;;18.68;50.09
65897;BME280;52677;50.898;10.854;2022-07-29T07:25:53;98634.97;;;18.80;49.61
65897;BME280;52677;50.898;10.854;2022-07-29T07:27:54;98643.06;;;18.94;48.96
65897;BME280;52677;50.898;10.854;2022-07-29T07:29:54;98641.34;;;19.00;48.49
65897;BME280;52677;50.898;10.854;2022-07-29T07:31:54;98632.09;;;19.03;48.77
65897;BME280;52677;50.898;10.854;2022-07-29T07:33:55;98638.31;;;19.11;48.23
65897;BME280;52677;50.898;10.854;2022-07-29T07:35:55;98634.72;;;19.11;47.95
65897;BME280;52677;50.898;10.854;2022-07-29T07:37:56;98625.97;;;19.08;47.93
65897;BME280;52677;50.898;10.854;2022-07-29T07:39:56;98634.16;;;19.19;47.85
65897;BME280;52677;50.898;10.854;2022-07-29T07:41:57;98627.97;;;19.28;47.35
65897;BME280;52677;50.898;10.854;2022-07-29T07:43:58;98629.78;;;19.38;47.10
65897;BME280;52677;50.898;10.854;2022-07-29T07:45:59;98630.81;;;19.44;46.90
65897;BME280;52677;50.898;10.854;2022-07-29T07:47:59;98627.06;;;19.51;47.02
65897;BME280;52677;50.898;10.854;2022-07-29T07:50:00;98622.13;;;19.58;46.71
65897;BME280;52677;50.898;10.854;2022-07-29T07:52:00;98631.53;;;19.68;46.97
65897;BME280;52677;50.898;10.854;2022-07-29T07:54:00;98626.19;;;19.74;46.66
65897;BME280;52677;50.898;10.854;2022-07-29T07:56:01;98619.19;;;19.82;46.40
65897;BME280;52677;50.898;10.854;2022-07-29T07:58:01;98633.13;;;19.85;46.00
65897;BME280;52677;50.898;10.854;2022-07-29T08:00:02;98630.69;;;19.87;45.63
65897;BME280;52677;50.898;10.854;2022-07-29T08:02:03;98627.44;;;19.89;44.83
65897;BME280;52677;50.898;10.854;2022-07-29T08:04:04;98628.94;;;19.93;45.08
65897;BME280;52677;50.898;10.854;2022-07-29T08:06:04;98632.81;;;20.00;45.38
65897;BME280;52677;50.898;10.854;2022-07-29T08:08:06;98628.53;;;20.11;45.11
65897;BME280;52677;50.898;10.854;2022-07-29T08:10:07;98626.41;;;20.15;44.57
65897;BME280;52677;50.898;10.854;2022-07-29T08:12:07;98624.31;;;20.19;44.15
65897;BME280;52677;50.898;10.854;2022-07-29T08:14:08;98626.91;;;20.27;44.70
65897;BME280;52677;50.898;10.854;2022-07-29T08:16:08;98625.00;;;20.40;44.54
65897;BME280;52677;50.898;10.854;2022-07-29T08:18:13;98623.16;;;20.50;43.96
65897;BME280;52677;50.898;10.854;2022-07-29T08:20:13;98622.53;;;20.58;42.19
65897;BME280;52677;50.898;10.854;2022-07-29T08:22:14;98626.47;;;20.77;42.88
65897;BME280;52677;50.898;10.854;2022-07-29T08:24:14;98627.94;;;20.82;42.44
65897;BME280;52677;50.898;10.854;2022-07-29T08:26:33;98625.63;;;20.76;41.73
65897;BME280;52677;50.898;10.854;2022-07-29T08:28:33;98622.22;;;20.85;42.41
65897;BME280;52677;50.898;10.854;2022-07-29T08:30:34;98622.00;;;20.92;42.38
65897;BME280;52677;50.898;10.854;2022-07-29T08:32:34;98615.84;;;20.97;41.90
65897;BME280;52677;50.898;10.854;2022-07-29T08:34:35;98615.72;;;21.01;42.40
65897;BME280;52677;50.898;10.854;2022-07-29T08:36:35;98615.31;;;21.02;42.40
65897;BME280;52677;50.898;10.854;2022-07-29T08:38:36;98612.97;;;21.26;41.12
65897;BME280;52677;50.898;10.854;2022-07-29T08:40:36;98611.13;;;21.49;41.04
65897;BME280;52677;50.898;10.854;2022-07-29T08:42:37;98614.97;;;21.68;41.70
65897;BME280;52677;50.898;10.854;2022-07-29T08:44:37;98618.72;;;21.90;41.33
65897;BME280;52677;50.898;10.854;2022-07-29T08:46:38;98615.75;;;22.06;40.42
65897;BME280;52677;50.898;10.854;2022-07-29T08:48:41;98604.16;;;21.92;39.62
65897;BME280;52677;50.898;10.854;2022-07-29T08:50:42;98608.22;;;21.91;40.95
65897;BME280;52677;50.898;10.854;2022-07-29T08:52:43;98611.50;;;21.89;40.33
65897;BME280;52677;50.898;10.854;2022-07-29T08:54:43;98600.22;;;21.89;41.24
65897;BME280;52677;50.898;10.854;2022-07-29T08:56:47;98616.44;;;21.98;42.07
65897;BME280;52677;50.898;10.854;2022-07-29T08:58:49;98600.47;;;21.95;41.35
65897;BME280;52677;50.898;10.854;2022-07-29T09:00:52;98605.31;;;21.94;41.51
65897;BME280;52677;50.898;10.854;2022-07-29T09:02:57;98606.44;;;21.97;41.40
65897;BME280;52677;50.898;10.854;2022-07-29T09:04:59;98606.31;;;22.00;41.81
65897;BME280;52677;50.898;10.854;2022-07-29T09:07:03;98604.06;;;22.08;42.11
65897;BME280;52677;50.898;10.854;2022-07-29T09:09:03;98597.31;;;22.18;41.89
65897;BME280;52677;50.898;10.854;2022-07-29T09:11:04;98600.31;;;22.36;41.26
65897;BME280;52677;50.898;10.854;2022-07-29T09:13:05;98596.34;;;22.47;41.56
65897;BME280;52677;50.898;10.854;2022-07-29T09:15:05;98605.44;;;22.51;41.11
65897;BME280;52677;50.898;10.854;2022-07-29T09:17:06;98597.34;;;22.53;40.59
65897;BME280;52677;50.898;10.854;2022-07-29T09:19:29;98591.09;;;22.58;40.22
65897;BME280;52677;50.898;10.854;2022-07-29T09:21:40;98589.59;;;22.66;40.12
65897;BME280;52677;50.898;10.854;2022-07-29T09:24:06;98594.00;;;22.67;40.38
65897;BME280;52677;50.898;10.854;2022-07-29T09:26:07;98583.38;;;22.71;40.46
65897;BME280;52677;50.898;10.854;2022-07-29T09:28:09;98588.19;;;22.83;40.45
65897;BME280;52677;50.898;10.854;2022-07-29T09:30:13;98585.53;;;23.02;39.96
65897;BME280;52677;50.898;10.854;2022-07-29T09:32:14;98580.75;;;23.11;40.36
65897;BME280;52677;50.898;10.854;2022-07-29T09:34:20;98580.13;;;23.16;39.40
65897;BME280;52677;50.898;10.854;2022-07-29T09:36:21;98583.47;;;23.24;39.06
65897;BME280;52677;50.898;10.854;2022-07-29T09:38:21;98576.78;;;23.31;38.91
65897;BME280;52677;50.898;10.854;2022-07-29T09:40:27;98582.31;;;23.34;39.15
65897;BME280;52677;50.898;10.854;2022-07-29T09:42:29;98573.94;;;23.31;39.36
65897;BME280;52677;50.898;10.854;2022-07-29T09:44:47;98579.41;;;23.25;38.73
65897;BME280;52677;50.898;10.854;2022-07-29T09:47:02;98582.31;;;23.34;38.92
65897;BME280;52677;50.898;10.854;2022-07-29T09:49:10;98576.19;;;23.36;38.85
65897;BME280;52677;50.898;10.854;2022-07-29T09:51:18;98579.00;;;23.36;39.01
65897;BME280;52677;50.898;10.854;2022-07-29T09:53:33;98582.56;;;23.27;38.07
65897;BME280;52677;50.898;10.854;2022-07-29T09:55:48;98578.03;;;23.30;38.64
65897;BME280;52677;50.898;10.854;2022-07-29T09:57:49;98573.38;;;23.36;38.31
65897;BME280;52677;50.898;10.854;2022-07-29T10:00:01;98567.44;;;23.43;38.01
65897;BME280;52677;50.898;10.854;2022-07-29T10:02:11;98571.84;;;23.44;38.15
65897;BME280;52677;50.898;10.854;2022-07-29T10:04:12;98571.69;;;23.47;38.02
65897;BME280;52677;50.898;10.854;2022-07-29T10:06:13;98575.59;;;23.50;37.95
65897;BME280;52677;50.898;10.854;2022-07-29T10:08:13;98567.81;;;23.54;37.96
65897;BME280;52677;50.898;10.854;2022-07-29T10:10:25;98565.44;;;23.52;37.66
65897;BME280;52677;50.898;10.854;2022-07-29T10:12:26;98553.53;;;23.58;37.81
65897;BME280;52677;50.898;10.854;2022-07-29T10:14:26;98557.59;;;23.57;38.19
65897;BME280;52677;50.898;10.854;2022-07-29T10:16:26;98551.25;;;23.65;37.83
65897;BME280;52677;50.898;10.854;2022-07-29T10:18:32;98553.00;;;23.72;37.84
65897;BME280;52677;50.898;10.854;2022-07-29T10:20:34;98549.84;;;23.70;37.66
65897;BME280;52677;50.898;10.854;2022-07-29T10:22:34;98543.25;;;23.73;37.26
65897;BME280;52677;50.898;10.854;2022-07-29T10:24:36;98546.88;;;23.73;36.66
65897;BME280;52677;50.898;10.854;2022-07-29T10:26:40;98556.75;;;23.69;36.79
65897;BME280;52677;50.898;10.854;2022-07-29T10:28:41;98553.19;;;23.77;37.01
65897;BME280;52677;50.898;10.854;2022-07-29T10:30:41;98556.31;;;23.79;37.30
65897;BME280;52677;50.898;10.854;2022-07-29T10:37:30;98551.25;;;23.65;37.09
65897;BME280;52677;50.898;10.854;2022-07-29T10:40:11;98555.97;;;23.68;37.41
65897;BME280;52677;50.898;10.854;2022-07-29T10:42:39;98529.44;;;23.66;36.82
65897;BME280;52677;50.898;10.854;2022-07-29T10:44:41;98539.03;;;23.68;36.79
65897;BME280;52677;50.898;10.854;2022-07-29T10:46:43;98541.06;;;23.68;37.18
65897;BME280;52677;50.898;10.854;2022-07-29T10:51:09;98535.53;;;23.64;36.64
65897;BME280;52677;50.898;10.854;2022-07-29T10:53:09;98528.00;;;23.61;36.05
65897;BME280;52677;50.898;10.854;2022-07-29T10:55:30;98530.38;;;23.63;36.57
65897;BME280;52677;50.898;10.854;2022-07-29T10:57:32;98521.25;;;23.59;36.26
65897;BME280;52677;50.898;10.854;2022-07-29T10:59:34;98525.28;;;23.58;36.19
65897;BME280;52677;50.898;10.854;2022-07-29T11:01:34;98521.13;;;23.62;35.95
65897;BME280;52677;50.898;10.854;2022-07-29T11:05:52;98517.06;;;23.72;36.11